createdAt,value
2023-03-30T00:00:19.251Z,2.60
2023-03-30T00:02:49.115Z,3.13
2023-03-30T00:05:17.421Z,3.85
2023-03-30T00:07:47.238Z,3.30
2023-03-30T00:10:19.397Z,3.63
2023-03-30T00:12:48.202Z,3.80
2023-03-30T00:15:17.468Z,3.70
2023-03-30T00:17:45.311Z,4.15
2023-03-30T00:20:14.112Z,4.18
2023-03-30T00:22:42.016Z,4.22
2023-03-30T00:25:10.892Z,3.72
2023-03-30T00:27:37.538Z,2.72
2023-03-30T00:30:05.782Z,3.95
2023-03-30T00:32:32.403Z,3.83
2023-03-30T00:34:58.841Z,3.72
2023-03-30T00:37:25.748Z,4.00
2023-03-30T00:39:53.303Z,3.80
2023-03-30T00:42:21.753Z,3.20
2023-03-30T00:45:21.294Z,4.30
2023-03-30T00:47:52.336Z,2.50
2023-03-30T00:50:21.856Z,3.58
2023-03-30T00:52:53.478Z,3.20
2023-03-30T00:55:28.529Z,4.00
2023-03-30T00:57:55.155Z,3.30
2023-03-30T01:00:23.554Z,3.13
2023-03-30T01:02:56.931Z,4.70
2023-03-30T01:05:24.198Z,3.47
2023-03-30T01:07:57.888Z,3.58
2023-03-30T01:10:24.840Z,3.20
2023-03-30T01:12:53.873Z,3.38
2023-03-30T01:15:22.085Z,4.53
2023-03-30T01:18:13.961Z,2.80
2023-03-30T01:21:29.865Z,3.78
2023-03-30T01:24:35.302Z,3.72
2023-03-30T01:27:21.888Z,4.25
2023-03-30T01:30:05.692Z,3.00
2023-03-30T01:32:51.760Z,3.10
2023-03-30T01:35:46.028Z,3.22
2023-03-30T01:38:28.335Z,3.75
2023-03-30T01:41:51.512Z,3.05
2023-03-30T01:44:36.650Z,3.80
2023-03-30T01:47:33.377Z,2.88
2023-03-30T01:50:08.939Z,3.28
2023-03-30T01:52:54.133Z,4.60
2023-03-30T01:55:25.956Z,2.90
2023-03-30T01:58:07.932Z,3.58
2023-03-30T02:00:38.062Z,3.50
2023-03-30T02:03:09.758Z,4.50
2023-03-30T02:05:37.060Z,2.90
2023-03-30T02:08:13.474Z,4.43
2023-03-30T02:10:42.468Z,4.18
2023-03-30T02:13:09.895Z,3.60
2023-03-30T02:15:41.621Z,4.18
2023-03-30T02:18:08.883Z,2.88
2023-03-30T02:20:35.803Z,3.28
2023-03-30T02:23:05.905Z,3.00
2023-03-30T02:25:40.211Z,3.97
2023-03-30T02:28:08.051Z,4.18
2023-03-30T02:30:37.040Z,3.58
2023-03-30T02:33:04.653Z,3.90
2023-03-30T02:35:46.012Z,3.90
2023-03-30T02:42:10.649Z,4.15
2023-03-30T02:44:48.679Z,3.83
2023-03-30T02:47:37.544Z,4.30
2023-03-30T02:50:14.815Z,3.40
2023-03-30T02:52:54.003Z,4.38
2023-03-30T02:55:34.600Z,4.00
2023-03-30T02:58:18.550Z,3.72
2023-03-30T03:00:59.548Z,4.43
2023-03-30T03:03:47.999Z,4.38
2023-03-30T03:06:15.408Z,4.25
2023-03-30T03:08:45.001Z,4.35
2023-03-30T03:11:11.658Z,3.97
2023-03-30T03:13:38.691Z,4.32
2023-03-30T03:16:07.991Z,4.10
2023-03-30T03:18:39.807Z,4.18
2023-03-30T03:21:07.444Z,4.70
2023-03-30T03:23:35.220Z,3.10
2023-03-30T03:26:02.024Z,4.85
2023-03-30T03:28:29.518Z,4.25
2023-03-30T03:30:57.076Z,4.15
2023-03-30T03:33:23.712Z,3.72
2023-03-30T03:35:53.951Z,3.67
2023-03-30T03:38:22.023Z,3.40
2023-03-30T03:40:56.840Z,3.40
2023-03-30T03:43:24.005Z,3.55
2023-03-30T03:45:53.636Z,3.67
2023-03-30T03:48:21.656Z,3.10
2023-03-30T03:50:53.269Z,3.15
2023-03-30T03:53:19.934Z,4.28
2023-03-30T03:55:46.746Z,4.10
2023-03-30T03:58:14.276Z,3.75
2023-03-30T04:00:41.016Z,3.88
2023-03-30T04:03:08.945Z,3.38
2023-03-30T04:05:36.161Z,3.13
2023-03-30T04:08:02.736Z,4.43
2023-03-30T04:10:32.241Z,3.90
2023-03-30T04:13:01.947Z,3.45
2023-03-30T04:15:28.278Z,3.13
2023-03-30T04:17:58.142Z,4.25
2023-03-30T04:20:29.372Z,3.90
2023-03-30T04:22:56.017Z,3.83
2023-03-30T04:25:25.700Z,4.95
2023-03-30T04:27:55.256Z,5.20
2023-03-30T04:30:22.827Z,4.22
2023-03-30T04:33:03.359Z,3.55
2023-03-30T04:35:36.943Z,4.35
2023-03-30T04:38:03.320Z,4.65
2023-03-30T04:40:29.794Z,4.35
2023-03-30T04:43:02.372Z,4.28
2023-03-30T04:45:30.285Z,4.22
2023-03-30T04:47:56.916Z,2.92
2023-03-30T04:50:23.325Z,3.58
2023-03-30T04:52:49.710Z,3.80
2023-03-30T04:55:16.095Z,4.40
2023-03-30T04:57:46.387Z,3.92
2023-03-30T05:00:13.704Z,4.45
2023-03-30T05:02:40.332Z,4.00
2023-03-30T05:05:07.552Z,4.05
2023-03-30T05:07:35.403Z,3.90
2023-03-30T05:10:01.854Z,3.40
2023-03-30T05:12:28.194Z,4.45
2023-03-30T05:14:57.572Z,4.88
2023-03-30T05:17:24.069Z,3.10
2023-03-30T05:19:50.627Z,3.90
2023-03-30T05:22:17.031Z,3.78
2023-03-30T05:24:43.429Z,4.53
2023-03-30T05:27:12.371Z,4.72
2023-03-30T05:29:38.826Z,4.30
2023-03-30T05:32:05.360Z,4.55
2023-03-30T05:34:31.808Z,3.58
2023-03-30T05:36:59.533Z,4.70
2023-03-30T05:39:26.557Z,5.55
2023-03-30T05:41:53.468Z,4.60
2023-03-30T05:44:22.419Z,4.80
2023-03-30T05:46:49.272Z,5.47
2023-03-30T05:49:15.932Z,4.68
2023-03-30T05:51:42.291Z,6.10
2023-03-30T05:54:11.846Z,7.07
2023-03-30T05:56:38.379Z,6.05
2023-03-30T05:59:05.152Z,8.10
2023-03-30T06:01:58.588Z,8.63
2023-03-30T06:04:27.092Z,9.00
2023-03-30T06:06:56.384Z,9.55
2023-03-30T06:11:51.607Z,8.93
2023-03-30T06:14:18.527Z,8.32
2023-03-30T06:16:45.397Z,8.38
2023-03-30T06:19:14.770Z,8.70
2023-03-30T06:21:41.212Z,6.38
2023-03-30T06:24:07.586Z,7.20
2023-03-30T06:26:49.100Z,6.97
2023-03-30T06:29:17.926Z,7.07
2023-03-30T06:31:44.298Z,7.13
2023-03-30T06:34:10.803Z,7.70
2023-03-30T06:36:45.293Z,7.72
2023-03-30T06:39:13.408Z,7.07
2023-03-30T06:41:40.437Z,8.07
2023-03-30T06:44:10.252Z,7.85
2023-03-30T06:46:37.093Z,6.88
2023-03-30T06:49:03.558Z,6.53
2023-03-30T06:51:29.981Z,6.95
2023-03-30T06:53:56.589Z,7.60
2023-03-30T06:56:23.153Z,8.30
2023-03-30T06:58:49.687Z,8.30
2023-03-30T07:01:16.633Z,8.32
2023-03-30T07:03:43.196Z,7.30
2023-03-30T07:06:10.596Z,6.20
2023-03-30T07:08:37.137Z,7.38
2023-03-30T07:11:06.854Z,6.70
2023-03-30T07:13:36.119Z,6.10
2023-03-30T07:16:03.112Z,6.07
2023-03-30T07:18:29.523Z,5.70
2023-03-30T07:20:59.465Z,5.45
2023-03-30T07:23:26.197Z,4.30
2023-03-30T07:25:53.119Z,5.57
2023-03-30T07:28:24.376Z,5.75
2023-03-30T07:30:55.986Z,5.10
2023-03-30T07:33:23.507Z,5.65
2023-03-30T07:35:50.780Z,5.20
2023-03-30T07:38:17.467Z,5.65
2023-03-30T07:40:44.224Z,6.82
2023-03-30T07:43:10.927Z,6.93
2023-03-30T07:45:37.593Z,6.63
2023-03-30T07:48:06.717Z,7.05
2023-03-30T07:50:33.283Z,5.75
2023-03-30T07:53:00.197Z,6.85
2023-03-30T07:55:28.664Z,6.70
2023-03-30T07:57:56.097Z,5.53
2023-03-30T08:00:23.818Z,6.45
2023-03-30T08:02:53.638Z,6.63
2023-03-30T08:05:20.286Z,7.28
2023-03-30T08:07:46.906Z,6.03
2023-03-30T08:10:14.402Z,7.00
2023-03-30T08:12:41.189Z,6.25
2023-03-30T08:15:08.179Z,6.13
2023-03-30T08:17:34.901Z,7.25
2023-03-30T08:20:01.735Z,8.13
2023-03-30T08:22:28.226Z,6.93
2023-03-30T08:24:55.001Z,17.45
2023-03-30T08:27:21.442Z,9.30
2023-03-30T08:29:48.748Z,9.70
2023-03-30T08:32:16.218Z,11.70
2023-03-30T08:34:42.951Z,7.45
2023-03-30T08:37:09.879Z,6.63
2023-03-30T08:39:38.903Z,5.70
2023-03-30T08:42:16.061Z,9.65
2023-03-30T08:44:46.317Z,8.85
2023-03-30T08:47:17.622Z,7.63
2023-03-30T08:49:59.552Z,7.07
2023-03-30T08:52:26.819Z,7.38
2023-03-30T08:54:53.343Z,18.98
2023-03-30T08:57:31.338Z,7.00
2023-03-30T09:02:42.880Z,7.53
2023-03-30T09:05:23.113Z,6.35
2023-03-30T09:07:58.305Z,7.18
2023-03-30T09:10:28.547Z,5.95
2023-03-30T09:12:58.405Z,5.95
2023-03-30T09:15:48.541Z,6.38
2023-03-30T09:18:35.051Z,6.10
2023-03-30T09:21:07.343Z,9.80
2023-03-30T09:23:35.880Z,8.77
2023-03-30T09:26:31.501Z,5.22
2023-03-30T09:29:06.086Z,4.82
2023-03-30T09:31:47.469Z,5.13
2023-03-30T09:34:19.672Z,5.40
2023-03-30T09:37:05.504Z,5.07
2023-03-30T09:39:35.487Z,5.32
2023-03-30T09:42:33.730Z,9.90
2023-03-30T09:45:10.593Z,4.90
2023-03-30T09:47:38.983Z,4.85
2023-03-30T09:50:12.394Z,4.55
2023-03-30T09:52:40.636Z,4.97
2023-03-30T09:55:22.417Z,5.43
2023-03-30T09:57:51.010Z,5.05
2023-03-30T10:00:32.307Z,4.30
2023-03-30T10:03:01.013Z,4.60
2023-03-30T10:05:28.194Z,4.43
2023-03-30T10:07:59.668Z,3.97
2023-03-30T10:10:26.462Z,3.35
2023-03-30T10:13:04.470Z,4.60
2023-03-30T10:15:31.575Z,3.25
2023-03-30T10:18:04.542Z,3.75
2023-03-30T10:20:39.296Z,3.90
2023-03-30T10:23:14.222Z,3.05
2023-03-30T10:25:46.435Z,3.05
2023-03-30T10:28:25.282Z,3.40
2023-03-30T10:30:58.616Z,3.78
2023-03-30T10:33:25.705Z,4.05
2023-03-30T10:35:58.190Z,3.47
2023-03-30T10:38:24.744Z,3.53
2023-03-30T10:41:02.644Z,3.17
2023-03-30T10:43:33.129Z,3.58
2023-03-30T10:46:20.386Z,3.78
2023-03-30T10:49:17.437Z,3.88
2023-03-30T10:52:00.431Z,2.80
2023-03-30T10:54:38.975Z,3.58
2023-03-30T10:57:13.545Z,3.63
2023-03-30T10:59:50.604Z,3.08
2023-03-30T11:02:36.279Z,3.10
2023-03-30T11:05:09.485Z,3.03
2023-03-30T11:07:39.138Z,3.47
2023-03-30T11:10:15.523Z,2.70
2023-03-30T11:12:46.559Z,2.92
2023-03-30T11:15:22.769Z,2.90
2023-03-30T11:18:03.161Z,3.47
2023-03-30T11:20:42.294Z,3.60
2023-03-30T11:23:20.881Z,3.30
2023-03-30T11:25:57.653Z,2.90
2023-03-30T11:28:42.658Z,3.65
2023-03-30T11:31:25.903Z,2.58
2023-03-30T11:34:06.000Z,2.65
2023-03-30T11:36:39.935Z,2.38
2023-03-30T11:39:29.089Z,2.80
2023-03-30T11:42:09.247Z,2.80
2023-03-30T11:44:36.452Z,2.75
2023-03-30T11:47:10.412Z,2.85
2023-03-30T11:49:56.849Z,2.28
2023-03-30T11:52:41.663Z,2.72
2023-03-30T11:55:26.029Z,2.05
2023-03-30T11:58:06.290Z,2.13
2023-03-30T12:00:59.359Z,2.00
2023-03-30T12:03:42.583Z,1.60
2023-03-30T12:06:12.077Z,1.65
2023-03-30T12:08:56.455Z,2.08
2023-03-30T12:11:33.403Z,2.22
2023-03-30T12:14:00.748Z,2.05
2023-03-30T12:16:49.436Z,3.33
2023-03-30T12:19:24.744Z,2.50
2023-03-30T12:22:12.597Z,2.75
2023-03-30T12:24:51.891Z,1.65
2023-03-30T12:27:18.262Z,2.17
2023-03-30T12:32:34.588Z,2.10
2023-03-30T12:35:01.216Z,1.60
2023-03-30T12:37:34.647Z,1.60
2023-03-30T12:40:09.243Z,1.50
2023-03-30T12:42:46.283Z,1.70
2023-03-30T12:45:24.102Z,1.42
2023-03-30T12:48:15.936Z,1.90
2023-03-30T12:51:07.104Z,1.90
2023-03-30T12:53:46.407Z,1.98
2023-03-30T12:56:38.401Z,1.60
2023-03-30T12:59:24.205Z,1.80
2023-03-30T13:02:02.858Z,1.88
2023-03-30T13:04:37.569Z,1.67
2023-03-30T13:07:07.421Z,2.00
2023-03-30T13:09:53.328Z,1.85
2023-03-30T13:12:40.044Z,2.50
2023-03-30T13:15:46.149Z,3.03
2023-03-30T13:18:12.428Z,2.55
2023-03-30T13:20:48.008Z,2.35
2023-03-30T13:25:46.436Z,2.25
2023-03-30T13:28:34.516Z,1.55
2023-03-30T13:31:24.073Z,1.63
2023-03-30T13:34:18.530Z,2.25
2023-03-30T13:37:14.092Z,1.30
2023-03-30T13:39:52.701Z,1.30
2023-03-30T13:42:45.779Z,1.95
2023-03-30T13:45:26.650Z,1.45
2023-03-30T13:48:09.002Z,1.55
2023-03-30T13:50:35.494Z,1.38
2023-03-30T13:53:10.732Z,1.52
2023-03-30T13:55:41.863Z,1.30
2023-03-30T13:58:21.246Z,1.00
2023-03-30T14:00:56.887Z,0.90
2023-03-30T14:03:30.930Z,0.93
2023-03-30T14:06:13.426Z,1.05
2023-03-30T14:08:44.831Z,1.02
2023-03-30T14:11:16.069Z,1.10
2023-03-30T14:13:44.552Z,1.00
2023-03-30T14:16:23.718Z,0.95
2023-03-30T14:18:50.751Z,1.27
2023-03-30T14:21:24.022Z,1.30
2023-03-30T14:23:54.791Z,1.15
2023-03-30T14:26:26.719Z,1.52
2023-03-30T14:28:58.680Z,1.38
2023-03-30T14:31:28.170Z,1.52
2023-03-30T14:33:55.957Z,1.23
2023-03-30T14:36:22.857Z,1.90
2023-03-30T14:38:54.149Z,1.45
2023-03-30T14:41:24.873Z,1.80
2023-03-30T14:43:56.056Z,1.33
2023-03-30T14:46:25.599Z,1.83
2023-03-30T14:48:52.585Z,1.30
2023-03-30T14:51:25.418Z,1.73
2023-03-30T14:53:53.789Z,1.60
2023-03-30T14:56:22.596Z,1.67
2023-03-30T14:58:51.914Z,1.80
2023-03-30T15:01:23.999Z,1.15
2023-03-30T15:03:50.771Z,1.35
2023-03-30T15:06:24.437Z,1.40
2023-03-30T15:08:51.157Z,1.10
2023-03-30T15:11:27.020Z,1.58
2023-03-30T15:13:57.828Z,1.08
2023-03-30T15:16:28.622Z,0.90
2023-03-30T15:19:24.289Z,1.40
2023-03-30T15:21:53.728Z,1.10
2023-03-30T15:24:25.867Z,1.13
2023-03-30T15:26:55.599Z,1.33
2023-03-30T15:29:22.676Z,1.20
2023-03-30T15:32:15.490Z,1.13
2023-03-30T15:35:16.286Z,0.75
2023-03-30T15:37:57.572Z,1.10
2023-03-30T15:40:34.118Z,1.00
2023-03-30T15:43:25.745Z,1.20
2023-03-30T15:45:54.906Z,0.90
2023-03-30T15:48:22.795Z,0.95
2023-03-30T15:51:03.217Z,1.10
2023-03-30T15:53:39.417Z,1.17
2023-03-30T15:56:12.608Z,1.40
2023-03-30T15:58:39.626Z,1.10
2023-03-30T16:01:09.201Z,1.02
2023-03-30T16:03:40.202Z,1.20
2023-03-30T16:06:12.403Z,1.10
2023-03-30T16:08:42.859Z,1.55
2023-03-30T16:11:10.698Z,1.75
2023-03-30T16:13:42.465Z,1.40
2023-03-30T16:16:10.851Z,1.30
2023-03-30T16:18:37.850Z,1.10
2023-03-30T16:21:05.280Z,1.33
2023-03-30T16:23:31.771Z,2.00
2023-03-30T16:25:58.280Z,1.67
2023-03-30T16:28:25.211Z,1.27
2023-03-30T16:30:53.917Z,2.10
2023-03-30T16:33:20.374Z,2.20
2023-03-30T16:35:46.866Z,2.17
2023-03-30T16:38:17.309Z,1.83
2023-03-30T16:40:46.105Z,1.27
2023-03-30T16:43:12.758Z,1.98
2023-03-30T16:45:39.217Z,2.10
2023-03-30T16:48:05.936Z,2.00
2023-03-30T16:50:44.596Z,1.77
2023-03-30T16:53:11.770Z,2.30
2023-03-30T16:55:39.408Z,1.88
2023-03-30T16:58:08.170Z,1.90
2023-03-30T17:00:40.967Z,2.13
2023-03-30T17:03:08.030Z,1.48
2023-03-30T17:05:34.617Z,1.63
2023-03-30T17:08:06.961Z,1.98
2023-03-30T17:10:37.042Z,2.22
2023-03-30T17:13:03.639Z,1.90
2023-03-30T17:15:30.453Z,1.63
2023-03-30T17:17:56.843Z,2.40
2023-03-30T17:20:32.244Z,2.25
2023-03-30T17:22:58.693Z,3.35
2023-03-30T17:25:27.820Z,2.25
2023-03-30T17:30:27.475Z,2.08
2023-03-30T17:32:55.412Z,1.77
2023-03-30T17:35:23.871Z,1.98
2023-03-30T17:37:54.160Z,2.10
2023-03-30T17:40:25.943Z,1.92
2023-03-30T17:42:53.159Z,2.33
2023-03-30T17:45:22.316Z,2.45
2023-03-30T17:50:22.122Z,2.80
2023-03-30T17:52:49.250Z,1.73
2023-03-30T17:55:17.384Z,1.63
2023-03-30T17:57:43.907Z,1.90
2023-03-30T18:00:27.292Z,3.00
2023-03-30T18:02:54.835Z,2.38
2023-03-30T18:05:26.780Z,2.22
2023-03-30T18:07:53.456Z,2.63
2023-03-30T18:10:25.488Z,3.08
2023-03-30T18:12:53.069Z,2.85
2023-03-30T18:15:22.762Z,2.60
2023-03-30T18:17:49.391Z,1.70
2023-03-30T18:20:19.756Z,1.85
2023-03-30T18:22:46.501Z,2.78
2023-03-30T18:25:22.029Z,2.38
2023-03-30T18:27:56.711Z,2.47
2023-03-30T18:30:23.073Z,1.77
2023-03-30T18:32:50.676Z,1.92
2023-03-30T18:35:18.216Z,2.22
2023-03-30T18:37:45.073Z,2.35
2023-03-30T18:40:27.321Z,2.42
2023-03-30T18:42:55.101Z,2.38
2023-03-30T18:45:27.504Z,2.00
2023-03-30T18:47:55.051Z,2.88
2023-03-30T18:50:45.314Z,2.53
2023-03-30T18:53:14.126Z,2.08
2023-03-30T18:55:43.347Z,2.58
2023-03-30T19:00:48.562Z,4.20
2023-03-30T19:03:15.865Z,2.10
2023-03-30T19:05:43.070Z,1.98
2023-03-30T19:08:12.141Z,2.30
2023-03-30T19:13:06.517Z,2.90
2023-03-30T19:15:45.978Z,1.83
2023-03-30T19:18:13.745Z,2.35
2023-03-30T19:20:41.535Z,2.35
2023-03-30T19:23:13.208Z,2.10
2023-03-30T19:25:41.703Z,2.47
2023-03-30T19:28:09.398Z,2.15
2023-03-30T19:30:39.001Z,1.92
2023-03-30T19:33:12.083Z,2.03
2023-03-30T19:35:43.234Z,1.50
2023-03-30T19:38:09.636Z,1.45
2023-03-30T19:40:41.851Z,1.92
2023-03-30T19:43:10.943Z,1.88
2023-03-30T19:45:37.806Z,1.45
2023-03-30T19:48:04.878Z,2.35
2023-03-30T19:50:31.665Z,2.22
2023-03-30T19:52:58.559Z,1.73
2023-03-30T19:55:25.546Z,2.28
2023-03-30T19:57:52.115Z,2.50
2023-03-30T20:00:19.615Z,2.17
2023-03-30T20:02:51.052Z,1.10
2023-03-30T20:05:22.304Z,1.60
2023-03-30T20:07:49.481Z,1.80
2023-03-30T20:10:19.224Z,2.50
2023-03-30T20:12:46.686Z,2.38
2023-03-30T20:15:13.971Z,1.50
2023-03-30T20:17:40.519Z,1.30
2023-03-30T20:20:09.288Z,2.10
2023-03-30T20:22:37.203Z,1.98
2023-03-30T20:25:07.950Z,1.75
2023-03-30T20:27:35.401Z,1.30
2023-03-30T20:30:04.173Z,1.33
2023-03-30T20:32:30.693Z,1.80
2023-03-30T20:34:57.108Z,1.30
2023-03-30T20:37:23.528Z,1.52
2023-03-30T20:39:50.405Z,1.58
2023-03-30T20:42:17.960Z,1.52
2023-03-30T20:44:50.287Z,1.50
2023-03-30T20:47:18.131Z,1.88
2023-03-30T20:49:46.166Z,2.08
2023-03-30T20:52:12.840Z,2.05
2023-03-30T20:54:42.267Z,1.88
2023-03-30T20:57:08.614Z,1.92
2023-03-30T20:59:35.096Z,2.53
2023-03-30T21:02:03.350Z,2.08
2023-03-30T21:04:29.672Z,2.60
2023-03-30T21:06:56.086Z,2.72
2023-03-30T21:09:22.450Z,2.03
2023-03-30T21:11:48.828Z,2.30
2023-03-30T21:14:18.009Z,2.03
2023-03-30T21:19:11.808Z,2.35
2023-03-30T21:21:38.252Z,2.45
2023-03-30T21:24:05.945Z,2.33
2023-03-30T21:26:32.923Z,2.33
2023-03-30T21:28:59.242Z,1.90
2023-03-30T21:31:25.709Z,1.85
2023-03-30T21:33:52.722Z,1.70
2023-03-30T21:36:19.324Z,2.03
2023-03-30T21:38:46.305Z,2.53
2023-03-30T21:41:15.382Z,1.98
2023-03-30T21:43:44.201Z,2.45
2023-03-30T21:46:13.337Z,2.40
2023-03-30T21:48:41.667Z,1.60
2023-03-30T21:51:13.584Z,2.28
2023-03-30T21:53:41.482Z,1.90
2023-03-30T21:56:08.427Z,2.13
2023-03-30T21:58:35.057Z,1.95
2023-03-30T22:01:11.947Z,2.03
2023-03-30T22:03:44.601Z,2.22
2023-03-30T22:06:13.396Z,2.22
2023-03-30T22:08:40.448Z,2.15
2023-03-30T22:11:12.296Z,2.10
2023-03-30T22:13:39.149Z,2.45
2023-03-30T22:16:32.082Z,2.17
2023-03-30T22:18:59.024Z,1.98
2023-03-30T22:21:34.075Z,2.05
2023-03-30T22:24:03.070Z,1.70
2023-03-30T22:26:29.499Z,2.25
2023-03-30T22:28:56.494Z,2.17
2023-03-30T22:31:23.084Z,1.92
2023-03-30T22:33:49.460Z,2.25
2023-03-30T22:36:17.358Z,1.92
2023-03-30T22:38:43.888Z,2.28
2023-03-30T22:41:10.353Z,2.42
2023-03-30T22:43:37.346Z,2.45
2023-03-30T22:46:05.962Z,2.17
2023-03-30T22:48:33.807Z,1.90
2023-03-30T22:51:04.565Z,2.17
2023-03-30T22:53:31.933Z,2.08
2023-03-30T22:55:58.351Z,2.17
2023-03-30T22:58:27.640Z,2.20
2023-03-30T23:01:00.913Z,1.92
2023-03-30T23:03:27.712Z,1.83
2023-03-30T23:05:55.694Z,1.67
2023-03-30T23:08:23.879Z,1.50
2023-03-30T23:10:51.698Z,2.05
2023-03-30T23:13:18.071Z,2.55
2023-03-30T23:15:44.460Z,2.53
2023-03-30T23:18:12.000Z,2.08
2023-03-30T23:20:38.374Z,2.35
2023-03-30T23:23:07.862Z,1.83
2023-03-30T23:25:34.192Z,2.22
2023-03-30T23:28:00.830Z,2.42
2023-03-30T23:30:27.168Z,2.67
2023-03-30T23:32:53.526Z,2.20
2023-03-30T23:35:20.209Z,2.47
2023-03-30T23:37:46.617Z,1.90
2023-03-30T23:40:13.317Z,2.33
2023-03-30T23:42:39.622Z,1.90
2023-03-30T23:45:06.715Z,1.92
2023-03-30T23:47:33.162Z,2.40
2023-03-30T23:49:59.845Z,2.38
2023-03-30T23:52:27.028Z,2.55
2023-03-30T23:54:53.734Z,2.40
2023-03-30T23:57:25.435Z,1.75
2023-03-30T23:59:51.809Z,2.30
